sensor_id;sensor_type;location;lat;lon;timestamp;pressure;altitude;pressure_sealevel;temperature
15680;BMP180;15488;48.114;11.532;2023-06-19T00:00:22;95123.00;;;28.00
15680;BMP180;15488;48.114;11.532;2023-06-19T00:02:51;95126.00;;;28.00
15680;BMP180;15488;48.114;11.532;2023-06-19T00:05:18;95122.00;;;28.00
15680;BMP180;15488;48.114;11.532;2023-06-19T00:07:49;95127.00;;;28.00
15680;BMP180;15488;48.114;11.532;2023-06-19T00:10:16;95118.00;;;28.00
15680;BMP180;15488;48.114;11.532;2023-06-19T00:12:44;95119.00;;;28.00
15680;BMP180;15488;48.114;11.532;2023-06-19T00:15:11;95122.00;;;28.00
15680;BMP180;15488;48.114;11.532;2023-06-19T00:17:39;95121.00;;;28.00
15680;BMP180;15488;48.114;11.532;2023-06-19T00:20:09;95117.00;;;28.00
15680;BMP180;15488;48.114;11.532;2023-06-19T00:22:36;95105.00;;;28.00
15680;BMP180;15488;48.114;11.532;2023-06-19T00:25:04;95111.00;;;27.90
15680;BMP180;15488;48.114;11.532;2023-06-19T00:27:32;95107.00;;;27.90
15680;BMP180;15488;48.114;11.532;2023-06-19T00:29:59;95106.00;;;27.90
15680;BMP180;15488;48.114;11.532;2023-06-19T00:32:29;95112.00;;;27.90
15680;BMP180;15488;48.114;11.532;2023-06-19T00:34:56;95106.00;;;27.90
15680;BMP180;15488;48.114;11.532;2023-06-19T00:37:28;95103.00;;;27.90
15680;BMP180;15488;48.114;11.532;2023-06-19T00:39:58;95115.00;;;27.90
15680;BMP180;15488;48.114;11.532;2023-06-19T00:42:25;95110.00;;;27.90
15680;BMP180;15488;48.114;11.532;2023-06-19T00:44:53;95115.00;;;27.90
15680;BMP180;15488;48.114;11.532;2023-06-19T00:47:20;95113.00;;;27.90
15680;BMP180;15488;48.114;11.532;2023-06-19T00:49:49;95012.00;;;27.90
15680;BMP180;15488;48.114;11.532;2023-06-19T00:52:17;95112.00;;;27.90
15680;BMP180;15488;48.114;11.532;2023-06-19T00:54:46;95115.00;;;27.90
15680;BMP180;15488;48.114;11.532;2023-06-19T00:57:13;95113.00;;;27.90
15680;BMP180;15488;48.114;11.532;2023-06-19T00:59:41;95117.00;;;27.90
15680;BMP180;15488;48.114;11.532;2023-06-19T01:02:09;95119.00;;;27.90
15680;BMP180;15488;48.114;11.532;2023-06-19T01:04:37;95121.00;;;27.90
15680;BMP180;15488;48.114;11.532;2023-06-19T01:07:08;95125.00;;;27.90
15680;BMP180;15488;48.114;11.532;2023-06-19T01:09:42;95128.00;;;27.90
15680;BMP180;15488;48.114;11.532;2023-06-19T01:12:18;95117.00;;;27.90
15680;BMP180;15488;48.114;11.532;2023-06-19T01:14:53;95119.00;;;27.70
15680;BMP180;15488;48.114;11.532;2023-06-19T01:17:21;95120.00;;;27.90
15680;BMP180;15488;48.114;11.532;2023-06-19T01:19:49;95128.00;;;27.90
15680;BMP180;15488;48.114;11.532;2023-06-19T01:22:25;95121.00;;;27.90
15680;BMP180;15488;48.114;11.532;2023-06-19T01:24:53;95119.00;;;27.90
15680;BMP180;15488;48.114;11.532;2023-06-19T01:27:20;95127.00;;;27.90
15680;BMP180;15488;48.114;11.532;2023-06-19T01:29:48;95120.00;;;27.90
15680;BMP180;15488;48.114;11.532;2023-06-19T01:32:20;95118.00;;;27.90
15680;BMP180;15488;48.114;11.532;2023-06-19T01:34:50;95127.00;;;27.90
15680;BMP180;15488;48.114;11.532;2023-06-19T01:37:19;95126.00;;;27.90
15680;BMP180;15488;48.114;11.532;2023-06-19T01:39:49;95123.00;;;27.90
15680;BMP180;15488;48.114;11.532;2023-06-19T01:42:17;95125.00;;;27.90
15680;BMP180;15488;48.114;11.532;2023-06-19T01:44:45;95125.00;;;27.90
15680;BMP180;15488;48.114;11.532;2023-06-19T01:47:13;95127.00;;;27.60
15680;BMP180;15488;48.114;11.532;2023-06-19T01:49:45;95133.00;;;27.90
15680;BMP180;15488;48.114;11.532;2023-06-19T01:52:13;95121.00;;;27.90
15680;BMP180;15488;48.114;11.532;2023-06-19T01:54:41;95118.00;;;27.90
15680;BMP180;15488;48.114;11.532;2023-06-19T01:57:10;95119.00;;;27.90
15680;BMP180;15488;48.114;11.532;2023-06-19T01:59:37;95126.00;;;27.90
15680;BMP180;15488;48.114;11.532;2023-06-19T02:02:05;95125.00;;;27.90
15680;BMP180;15488;48.114;11.532;2023-06-19T02:04:33;95122.00;;;27.90
15680;BMP180;15488;48.114;11.532;2023-06-19T02:07:00;95129.00;;;27.90
15680;BMP180;15488;48.114;11.532;2023-06-19T02:09:28;95127.00;;;27.80
15680;BMP180;15488;48.114;11.532;2023-06-19T02:11:55;95133.00;;;27.90
15680;BMP180;15488;48.114;11.532;2023-06-19T02:14:24;95125.00;;;27.80
15680;BMP180;15488;48.114;11.532;2023-06-19T02:16:52;95125.00;;;27.80
15680;BMP180;15488;48.114;11.532;2023-06-19T02:19:19;95118.00;;;27.80
15680;BMP180;15488;48.114;11.532;2023-06-19T02:21:46;95119.00;;;27.80
15680;BMP180;15488;48.114;11.532;2023-06-19T02:24:14;95131.00;;;27.80
15680;BMP180;15488;48.114;11.532;2023-06-19T02:26:41;95128.00;;;27.80
15680;BMP180;15488;48.114;11.532;2023-06-19T02:29:10;95126.00;;;27.80
15680;BMP180;15488;48.114;11.532;2023-06-19T02:31:39;95124.00;;;27.80
15680;BMP180;15488;48.114;11.532;2023-06-19T02:34:06;95122.00;;;27.80
15680;BMP180;15488;48.114;11.532;2023-06-19T02:36:34;95131.00;;;27.80
15680;BMP180;15488;48.114;11.532;2023-06-19T02:39:04;95126.00;;;27.80
15680;BMP180;15488;48.114;11.532;2023-06-19T02:41:32;95131.00;;;27.80
15680;BMP180;15488;48.114;11.532;2023-06-19T02:44:00;95125.00;;;27.80
15680;BMP180;15488;48.114;11.532;2023-06-19T02:46:27;95125.00;;;27.80
15680;BMP180;15488;48.114;11.532;2023-06-19T02:48:56;95131.00;;;27.80
15680;BMP180;15488;48.114;11.532;2023-06-19T02:51:23;95125.00;;;27.80
15680;BMP180;15488;48.114;11.532;2023-06-19T02:53:51;95125.00;;;27.80
15680;BMP180;15488;48.114;11.532;2023-06-19T02:56:18;95131.00;;;27.70
15680;BMP180;15488;48.114;11.532;2023-06-19T02:58:46;95130.00;;;27.70
15680;BMP180;15488;48.114;11.532;2023-06-19T03:01:13;95130.00;;;27.70
15680;BMP180;15488;48.114;11.532;2023-06-19T03:03:41;95126.00;;;27.70
15680;BMP180;15488;48.114;11.532;2023-06-19T03:06:10;95123.00;;;27.70
15680;BMP180;15488;48.114;11.532;2023-06-19T03:08:37;95125.00;;;27.60
15680;BMP180;15488;48.114;11.532;2023-06-19T03:11:05;95125.00;;;27.60
15680;BMP180;15488;48.114;11.532;2023-06-19T03:13:43;95128.00;;;27.60
15680;BMP180;15488;48.114;11.532;2023-06-19T03:16:11;95131.00;;;27.60
15680;BMP180;15488;48.114;11.532;2023-06-19T03:18:38;95131.00;;;27.60
15680;BMP180;15488;48.114;11.532;2023-06-19T03:21:06;95139.00;;;27.60
15680;BMP180;15488;48.114;11.532;2023-06-19T03:23:35;95099.00;;;27.60
15680;BMP180;15488;48.114;11.532;2023-06-19T03:26:02;95140.00;;;27.60
15680;BMP180;15488;48.114;11.532;2023-06-19T03:28:30;95144.00;;;27.50
15680;BMP180;15488;48.114;11.532;2023-06-19T03:30:57;95151.00;;;27.50
15680;BMP180;15488;48.114;11.532;2023-06-19T03:33:25;95149.00;;;27.50
15680;BMP180;15488;48.114;11.532;2023-06-19T03:35:52;95153.00;;;27.50
15680;BMP180;15488;48.114;11.532;2023-06-19T03:38:20;95153.00;;;27.50
15680;BMP180;15488;48.114;11.532;2023-06-19T03:40:48;95154.00;;;27.50
15680;BMP180;15488;48.114;11.532;2023-06-19T03:43:16;95166.00;;;27.50
15680;BMP180;15488;48.114;11.532;2023-06-19T03:45:43;95169.00;;;27.50
15680;BMP180;15488;48.114;11.532;2023-06-19T03:48:11;95169.00;;;27.40
15680;BMP180;15488;48.114;11.532;2023-06-19T03:50:38;95175.00;;;27.50
15680;BMP180;15488;48.114;11.532;2023-06-19T03:53:06;95176.00;;;27.50
15680;BMP180;15488;48.114;11.532;2023-06-19T03:55:33;95179.00;;;27.50
15680;BMP180;15488;48.114;11.532;2023-06-19T03:58:02;95185.00;;;27.40
15680;BMP180;15488;48.114;11.532;2023-06-19T04:00:30;95185.00;;;27.40
15680;BMP180;15488;48.114;11.532;2023-06-19T04:02:58;95179.00;;;27.40
15680;BMP180;15488;48.114;11.532;2023-06-19T04:05:25;95190.00;;;27.30
15680;BMP180;15488;48.114;11.532;2023-06-19T04:07:53;95189.00;;;27.30
15680;BMP180;15488;48.114;11.532;2023-06-19T04:10:20;95185.00;;;27.30
15680;BMP180;15488;48.114;11.532;2023-06-19T04:12:48;95184.00;;;27.30
15680;BMP180;15488;48.114;11.532;2023-06-19T04:15:17;95182.00;;;27.20
15680;BMP180;15488;48.114;11.532;2023-06-19T04:17:44;95188.00;;;27.20
15680;BMP180;15488;48.114;11.532;2023-06-19T04:20:12;95193.00;;;27.20
15680;BMP180;15488;48.114;11.532;2023-06-19T04:22:40;95201.00;;;27.20
15680;BMP180;15488;48.114;11.532;2023-06-19T04:25:09;95201.00;;;27.20
15680;BMP180;15488;48.114;11.532;2023-06-19T04:27:37;95208.00;;;27.20
15680;BMP180;15488;48.114;11.532;2023-06-19T04:30:06;95208.00;;;27.20
15680;BMP180;15488;48.114;11.532;2023-06-19T04:32:35;95205.00;;;27.20
15680;BMP180;15488;48.114;11.532;2023-06-19T04:35:07;95217.00;;;27.30
15680;BMP180;15488;48.114;11.532;2023-06-19T04:37:35;95212.00;;;27.30
15680;BMP180;15488;48.114;11.532;2023-06-19T04:40:02;95211.00;;;27.30
15680;BMP180;15488;48.114;11.532;2023-06-19T04:42:31;95221.00;;;27.30
15680;BMP180;15488;48.114;11.532;2023-06-19T04:44:59;95219.00;;;27.40
15680;BMP180;15488;48.114;11.532;2023-06-19T04:47:26;95215.00;;;27.40
15680;BMP180;15488;48.114;11.532;2023-06-19T04:49:55;95225.00;;;27.40
15680;BMP180;15488;48.114;11.532;2023-06-19T04:52:22;95235.00;;;27.40
15680;BMP180;15488;48.114;11.532;2023-06-19T04:54:50;95260.00;;;27.40
15680;BMP180;15488;48.114;11.532;2023-06-19T04:57:17;95250.00;;;27.50
15680;BMP180;15488;48.114;11.532;2023-06-19T04:59:45;95244.00;;;27.50
15680;BMP180;15488;48.114;11.532;2023-06-19T05:02:12;95256.00;;;27.50
15680;BMP180;15488;48.114;11.532;2023-06-19T05:04:40;95259.00;;;27.50
15680;BMP180;15488;48.114;11.532;2023-06-19T05:07:10;95255.00;;;27.50
15680;BMP180;15488;48.114;11.532;2023-06-19T05:09:39;95260.00;;;27.50
15680;BMP180;15488;48.114;11.532;2023-06-19T05:12:06;95265.00;;;27.50
15680;BMP180;15488;48.114;11.532;2023-06-19T05:14:34;95278.00;;;27.50
15680;BMP180;15488;48.114;11.532;2023-06-19T05:17:01;95274.00;;;27.50
15680;BMP180;15488;48.114;11.532;2023-06-19T05:19:29;95274.00;;;27.50
15680;BMP180;15488;48.114;11.532;2023-06-19T05:21:56;95271.00;;;27.50
15680;BMP180;15488;48.114;11.532;2023-06-19T05:24:25;95265.00;;;27.50
15680;BMP180;15488;48.114;11.532;2023-06-19T05:26:52;95266.00;;;27.50
15680;BMP180;15488;48.114;11.532;2023-06-19T05:29:20;95268.00;;;27.50
15680;BMP180;15488;48.114;11.532;2023-06-19T05:31:47;95268.00;;;27.60
15680;BMP180;15488;48.114;11.532;2023-06-19T05:34:15;95269.00;;;27.60
15680;BMP180;15488;48.114;11.532;2023-06-19T05:36:42;95274.00;;;27.60
15680;BMP180;15488;48.114;11.532;2023-06-19T05:39:11;95286.00;;;27.70
15680;BMP180;15488;48.114;11.532;2023-06-19T05:41:40;95282.00;;;27.60
15680;BMP180;15488;48.114;11.532;2023-06-19T05:44:07;95285.00;;;27.70
15680;BMP180;15488;48.114;11.532;2023-06-19T05:46:35;95296.00;;;27.70
15680;BMP180;15488;48.114;11.532;2023-06-19T05:49:03;95303.00;;;27.80
15680;BMP180;15488;48.114;11.532;2023-06-19T05:51:30;95298.00;;;27.70
15680;BMP180;15488;48.114;11.532;2023-06-19T05:53:58;95300.00;;;27.60
15680;BMP180;15488;48.114;11.532;2023-06-19T05:56:29;95305.00;;;27.60
15680;BMP180;15488;48.114;11.532;2023-06-19T05:58:58;95298.00;;;27.60
15680;BMP180;15488;48.114;11.532;2023-06-19T06:01:26;95306.00;;;27.60
15680;BMP180;15488;48.114;11.532;2023-06-19T06:03:54;95312.00;;;27.60
15680;BMP180;15488;48.114;11.532;2023-06-19T06:06:22;95309.00;;;27.70
15680;BMP180;15488;48.114;11.532;2023-06-19T06:08:49;95312.00;;;27.80
15680;BMP180;15488;48.114;11.532;2023-06-19T06:11:17;95316.00;;;27.70
15680;BMP180;15488;48.114;11.532;2023-06-19T06:13:45;95316.00;;;27.70
15680;BMP180;15488;48.114;11.532;2023-06-19T06:16:13;95325.00;;;27.70
15680;BMP180;15488;48.114;11.532;2023-06-19T06:18:41;95316.00;;;27.80
15680;BMP180;15488;48.114;11.532;2023-06-19T06:21:09;95326.00;;;27.70
15680;BMP180;15488;48.114;11.532;2023-06-19T06:23:40;95320.00;;;27.70
15680;BMP180;15488;48.114;11.532;2023-06-19T06:26:07;95326.00;;;27.80
15680;BMP180;15488;48.114;11.532;2023-06-19T06:28:35;95325.00;;;27.90
15680;BMP180;15488;48.114;11.532;2023-06-19T06:31:04;95330.00;;;27.80
15680;BMP180;15488;48.114;11.532;2023-06-19T06:33:47;95325.00;;;27.80
15680;BMP180;15488;48.114;11.532;2023-06-19T06:36:15;95330.00;;;27.80
15680;BMP180;15488;48.114;11.532;2023-06-19T06:38:43;95336.00;;;27.90
15680;BMP180;15488;48.114;11.532;2023-06-19T06:41:20;95341.00;;;27.90
15680;BMP180;15488;48.114;11.532;2023-06-19T06:43:49;95348.00;;;27.90
15680;BMP180;15488;48.114;11.532;2023-06-19T06:46:16;95355.00;;;28.10
15680;BMP180;15488;48.114;11.532;2023-06-19T06:48:45;95350.00;;;28.20
15680;BMP180;15488;48.114;11.532;2023-06-19T06:51:12;95351.00;;;28.30
15680;BMP180;15488;48.114;11.532;2023-06-19T06:53:40;95354.00;;;28.30
15680;BMP180;15488;48.114;11.532;2023-06-19T06:56:07;95360.00;;;28.30
15680;BMP180;15488;48.114;11.532;2023-06-19T06:58:35;95361.00;;;28.40
15680;BMP180;15488;48.114;11.532;2023-06-19T07:01:02;95363.00;;;28.50
15680;BMP180;15488;48.114;11.532;2023-06-19T07:03:30;95370.00;;;28.50
15680;BMP180;15488;48.114;11.532;2023-06-19T07:05:59;95366.00;;;28.50
15680;BMP180;15488;48.114;11.532;2023-06-19T07:08:28;95373.00;;;28.60
15680;BMP180;15488;48.114;11.532;2023-06-19T07:10:56;95370.00;;;28.70
15680;BMP180;15488;48.114;11.532;2023-06-19T07:13:24;95370.00;;;28.70
15680;BMP180;15488;48.114;11.532;2023-06-19T07:15:52;95375.00;;;28.70
15680;BMP180;15488;48.114;11.532;2023-06-19T07:18:19;95370.00;;;28.70
15680;BMP180;15488;48.114;11.532;2023-06-19T07:20:47;95369.00;;;28.70
15680;BMP180;15488;48.114;11.532;2023-06-19T07:23:17;95360.00;;;28.80
15680;BMP180;15488;48.114;11.532;2023-06-19T07:25:46;95367.00;;;28.90
15680;BMP180;15488;48.114;11.532;2023-06-19T07:28:13;95372.00;;;28.90
15680;BMP180;15488;48.114;11.532;2023-06-19T07:30:42;95373.00;;;29.00
15680;BMP180;15488;48.114;11.532;2023-06-19T07:33:10;95373.00;;;29.10
15680;BMP180;15488;48.114;11.532;2023-06-19T07:35:37;95377.00;;;29.20
15680;BMP180;15488;48.114;11.532;2023-06-19T07:38:05;95376.00;;;29.20
15680;BMP180;15488;48.114;11.532;2023-06-19T07:40:34;95371.00;;;29.30
15680;BMP180;15488;48.114;11.532;2023-06-19T07:43:01;95367.00;;;29.40
15680;BMP180;15488;48.114;11.532;2023-06-19T07:45:29;95365.00;;;29.40
15680;BMP180;15488;48.114;11.532;2023-06-19T07:47:56;95370.00;;;29.40
15680;BMP180;15488;48.114;11.532;2023-06-19T07:50:24;95373.00;;;29.40
15680;BMP180;15488;48.114;11.532;2023-06-19T07:52:51;95368.00;;;29.40
15680;BMP180;15488;48.114;11.532;2023-06-19T07:55:19;95376.00;;;29.50
15680;BMP180;15488;48.114;11.532;2023-06-19T07:57:48;95381.00;;;29.50
15680;BMP180;15488;48.114;11.532;2023-06-19T08:00:16;95389.00;;;29.60
15680;BMP180;15488;48.114;11.532;2023-06-19T08:02:43;95386.00;;;29.60
15680;BMP180;15488;48.114;11.532;2023-06-19T08:05:11;95380.00;;;29.50
15680;BMP180;15488;48.114;11.532;2023-06-19T08:07:38;95392.00;;;29.50
15680;BMP180;15488;48.114;11.532;2023-06-19T08:10:07;95392.00;;;29.50
15680;BMP180;15488;48.114;11.532;2023-06-19T08:12:34;95404.00;;;29.40
15680;BMP180;15488;48.114;11.532;2023-06-19T08:15:04;95384.00;;;29.50
15680;BMP180;15488;48.114;11.532;2023-06-19T08:17:31;95385.00;;;29.60
15680;BMP180;15488;48.114;11.532;2023-06-19T08:19:59;95387.00;;;29.50
15680;BMP180;15488;48.114;11.532;2023-06-19T08:22:26;95392.00;;;29.70
15680;BMP180;15488;48.114;11.532;2023-06-19T08:24:53;95385.00;;;29.60
15680;BMP180;15488;48.114;11.532;2023-06-19T08:27:21;95387.00;;;29.80
15680;BMP180;15488;48.114;11.532;2023-06-19T08:29:48;95377.00;;;29.80
15680;BMP180;15488;48.114;11.532;2023-06-19T08:32:17;95385.00;;;29.90
15680;BMP180;15488;48.114;11.532;2023-06-19T08:34:44;95384.00;;;30.00
15680;BMP180;15488;48.114;11.532;2023-06-19T08:37:12;95381.00;;;30.10
15680;BMP180;15488;48.114;11.532;2023-06-19T08:39:39;95382.00;;;30.20
15680;BMP180;15488;48.114;11.532;2023-06-19T08:42:08;95379.00;;;30.30
15680;BMP180;15488;48.114;11.532;2023-06-19T08:44:36;95377.00;;;30.30
15680;BMP180;15488;48.114;11.532;2023-06-19T08:47:04;95375.00;;;30.40
15680;BMP180;15488;48.114;11.532;2023-06-19T08:49:34;95370.00;;;30.40
15680;BMP180;15488;48.114;11.532;2023-06-19T08:52:03;95371.00;;;30.50
15680;BMP180;15488;48.114;11.532;2023-06-19T08:54:31;95370.00;;;30.50
15680;BMP180;15488;48.114;11.532;2023-06-19T08:57:01;95374.00;;;30.70
15680;BMP180;15488;48.114;11.532;2023-06-19T08:59:30;95372.00;;;30.80
15680;BMP180;15488;48.114;11.532;2023-06-19T09:01:58;95369.00;;;30.90
15680;BMP180;15488;48.114;11.532;2023-06-19T09:04:27;95365.00;;;31.00
15680;BMP180;15488;48.114;11.532;2023-06-19T09:06:57;95354.00;;;31.10
15680;BMP180;15488;48.114;11.532;2023-06-19T09:09:26;95360.00;;;31.10
15680;BMP180;15488;48.114;11.532;2023-06-19T09:11:58;95356.00;;;31.10
15680;BMP180;15488;48.114;11.532;2023-06-19T09:14:32;95356.00;;;31.20
15680;BMP180;15488;48.114;11.532;2023-06-19T09:17:01;95360.00;;;31.30
15680;BMP180;15488;48.114;11.532;2023-06-19T09:19:32;95358.00;;;31.40
15680;BMP180;15488;48.114;11.532;2023-06-19T09:22:03;95357.00;;;31.40
15680;BMP180;15488;48.114;11.532;2023-06-19T09:24:34;95355.00;;;31.40
15680;BMP180;15488;48.114;11.532;2023-06-19T09:27:07;95354.00;;;31.50
15680;BMP180;15488;48.114;11.532;2023-06-19T09:29:37;95356.00;;;31.50
15680;BMP180;15488;48.114;11.532;2023-06-19T09:32:18;95353.00;;;31.60
15680;BMP180;15488;48.114;11.532;2023-06-19T09:34:45;95359.00;;;31.60
15680;BMP180;15488;48.114;11.532;2023-06-19T09:37:14;95355.00;;;31.70
15680;BMP180;15488;48.114;11.532;2023-06-19T09:39:42;95359.00;;;31.70
15680;BMP180;15488;48.114;11.532;2023-06-19T09:42:12;95356.00;;;31.80
15680;BMP180;15488;48.114;11.532;2023-06-19T09:44:42;95357.00;;;31.80
15680;BMP180;15488;48.114;11.532;2023-06-19T09:47:15;95357.00;;;31.90
15680;BMP180;15488;48.114;11.532;2023-06-19T09:49:49;95357.00;;;31.90
15680;BMP180;15488;48.114;11.532;2023-06-19T09:52:19;95360.00;;;31.90
15680;BMP180;15488;48.114;11.532;2023-06-19T09:54:49;95358.00;;;31.90
15680;BMP180;15488;48.114;11.532;2023-06-19T09:57:17;95350.00;;;32.00
15680;BMP180;15488;48.114;11.532;2023-06-19T09:59:46;95353.00;;;32.00
15680;BMP180;15488;48.114;11.532;2023-06-19T10:02:18;95352.00;;;32.10
15680;BMP180;15488;48.114;11.532;2023-06-19T10:04:49;95353.00;;;32.10
15680;BMP180;15488;48.114;11.532;2023-06-19T10:07:20;95346.00;;;32.20
15680;BMP180;15488;48.114;11.532;2023-06-19T10:09:58;95352.00;;;32.30
15680;BMP180;15488;48.114;11.532;2023-06-19T10:12:40;95344.00;;;32.30
15680;BMP180;15488;48.114;11.532;2023-06-19T10:15:16;95340.00;;;32.30
15680;BMP180;15488;48.114;11.532;2023-06-19T10:17:47;95342.00;;;32.40
15680;BMP180;15488;48.114;11.532;2023-06-19T10:20:28;95342.00;;;32.40
15680;BMP180;15488;48.114;11.532;2023-06-19T10:23:03;95342.00;;;32.40
15680;BMP180;15488;48.114;11.532;2023-06-19T10:25:34;95336.00;;;32.50
15680;BMP180;15488;48.114;11.532;2023-06-19T10:28:02;95336.00;;;32.60
15680;BMP180;15488;48.114;11.532;2023-06-19T10:30:32;95344.00;;;32.70
15680;BMP180;15488;48.114;11.532;2023-06-19T10:33:00;95341.00;;;32.70
15680;BMP180;15488;48.114;11.532;2023-06-19T10:35:36;95341.00;;;32.80
15680;BMP180;15488;48.114;11.532;2023-06-19T10:38:06;95338.00;;;32.90
15680;BMP180;15488;48.114;11.532;2023-06-19T10:40:35;95337.00;;;32.80
15680;BMP180;15488;48.114;11.532;2023-06-19T10:43:03;95334.00;;;32.90
15680;BMP180;15488;48.114;11.532;2023-06-19T10:45:31;95337.00;;;32.90
15680;BMP180;15488;48.114;11.532;2023-06-19T10:48:01;95325.00;;;32.90
15680;BMP180;15488;48.114;11.532;2023-06-19T10:50:30;95333.00;;;33.00
15680;BMP180;15488;48.114;11.532;2023-06-19T10:53:01;95326.00;;;33.00
15680;BMP180;15488;48.114;11.532;2023-06-19T10:55:29;95330.00;;;33.10
15680;BMP180;15488;48.114;11.532;2023-06-19T10:57:57;95324.00;;;33.20
15680;BMP180;15488;48.114;11.532;2023-06-19T11:00:28;95317.00;;;33.30
15680;BMP180;15488;48.114;11.532;2023-06-19T11:02:56;95314.00;;;33.40
15680;BMP180;15488;48.114;11.532;2023-06-19T11:05:25;95321.00;;;33.40
15680;BMP180;15488;48.114;11.532;2023-06-19T11:07:54;95313.00;;;33.60
15680;BMP180;15488;48.114;11.532;2023-06-19T11:10:23;95305.00;;;33.60
15680;BMP180;15488;48.114;11.532;2023-06-19T11:12:54;95306.00;;;33.70
15680;BMP180;15488;48.114;11.532;2023-06-19T11:15:29;95306.00;;;33.80
15680;BMP180;15488;48.114;11.532;2023-06-19T11:17:57;95297.00;;;33.90
15680;BMP180;15488;48.114;11.532;2023-06-19T11:20:24;95300.00;;;34.00
15680;BMP180;15488;48.114;11.532;2023-06-19T11:22:56;95302.00;;;34.10
15680;BMP180;15488;48.114;11.532;2023-06-19T11:25:33;95302.00;;;34.20
15680;BMP180;15488;48.114;11.532;2023-06-19T11:28:03;95294.00;;;34.30
15680;BMP180;15488;48.114;11.532;2023-06-19T11:30:31;95299.00;;;34.30
15680;BMP180;15488;48.114;11.532;2023-06-19T11:32:59;95301.00;;;34.40
15680;BMP180;15488;48.114;11.532;2023-06-19T11:35:33;95292.00;;;34.40
15680;BMP180;15488;48.114;11.532;2023-06-19T11:38:02;95296.00;;;34.50
15680;BMP180;15488;48.114;11.532;2023-06-19T11:40:39;95292.00;;;34.60
15680;BMP180;15488;48.114;11.532;2023-06-19T11:43:08;95288.00;;;34.70
15680;BMP180;15488;48.114;11.532;2023-06-19T11:45:45;95280.00;;;34.80
15680;BMP180;15488;48.114;11.532;2023-06-19T11:48:13;95276.00;;;34.90
15680;BMP180;15488;48.114;11.532;2023-06-19T11:50:41;95281.00;;;34.90
15680;BMP180;15488;48.114;11.532;2023-06-19T11:53:08;95280.00;;;35.00
15680;BMP180;15488;48.114;11.532;2023-06-19T11:55:35;95280.00;;;35.10
15680;BMP180;15488;48.114;11.532;2023-06-19T11:58:03;95282.00;;;35.20
15680;BMP180;15488;48.114;11.532;2023-06-19T12:00:32;95278.00;;;35.30
15680;BMP180;15488;48.114;11.532;2023-06-19T12:02:59;95280.00;;;35.40
15680;BMP180;15488;48.114;11.532;2023-06-19T12:05:27;95275.00;;;35.50
15680;BMP180;15488;48.114;11.532;2023-06-19T12:07:54;95284.00;;;35.60
15680;BMP180;15488;48.114;11.532;2023-06-19T12:10:22;95270.00;;;35.70
15680;BMP180;15488;48.114;11.532;2023-06-19T12:12:49;95273.00;;;35.80
15680;BMP180;15488;48.114;11.532;2023-06-19T12:15:17;95274.00;;;35.80
15680;BMP180;15488;48.114;11.532;2023-06-19T12:17:46;95274.00;;;35.80
15680;BMP180;15488;48.114;11.532;2023-06-19T12:20:13;95270.00;;;35.80
15680;BMP180;15488;48.114;11.532;2023-06-19T12:22:41;95269.00;;;35.80
15680;BMP180;15488;48.114;11.532;2023-06-19T12:25:09;95272.00;;;35.90
15680;BMP180;15488;48.114;11.532;2023-06-19T12:27:37;95261.00;;;35.90
15680;BMP180;15488;48.114;11.532;2023-06-19T12:30:05;95260.00;;;36.00
15680;BMP180;15488;48.114;11.532;2023-06-19T12:32:33;95254.00;;;36.10
15680;BMP180;15488;48.114;11.532;2023-06-19T12:35:02;95256.00;;;36.10
15680;BMP180;15488;48.114;11.532;2023-06-19T12:37:30;95250.00;;;36.20
15680;BMP180;15488;48.114;11.532;2023-06-19T12:39:58;95254.00;;;36.30
15680;BMP180;15488;48.114;11.532;2023-06-19T12:42:26;95259.00;;;36.40
15680;BMP180;15488;48.114;11.532;2023-06-19T12:44:53;95249.00;;;36.50
15680;BMP180;15488;48.114;11.532;2023-06-19T12:47:20;95254.00;;;36.60
15680;BMP180;15488;48.114;11.532;2023-06-19T12:49:48;95244.00;;;36.70
15680;BMP180;15488;48.114;11.532;2023-06-19T12:52:17;95243.00;;;36.80
15680;BMP180;15488;48.114;11.532;2023-06-19T12:54:44;95244.00;;;37.00
15680;BMP180;15488;48.114;11.532;2023-06-19T12:57:12;95237.00;;;37.10
15680;BMP180;15488;48.114;11.532;2023-06-19T12:59:39;95236.00;;;37.30
15680;BMP180;15488;48.114;11.532;2023-06-19T13:02:07;95242.00;;;37.50
15680;BMP180;15488;48.114;11.532;2023-06-19T13:04:35;95233.00;;;37.60
15680;BMP180;15488;48.114;11.532;2023-06-19T13:07:04;95242.00;;;37.80
15680;BMP180;15488;48.114;11.532;2023-06-19T13:09:33;95245.00;;;38.00
15680;BMP180;15488;48.114;11.532;2023-06-19T13:12:02;95238.00;;;38.20
15680;BMP180;15488;48.114;11.532;2023-06-19T13:14:29;95242.00;;;38.40
15680;BMP180;15488;48.114;11.532;2023-06-19T13:16:58;95236.00;;;38.50
15680;BMP180;15488;48.114;11.532;2023-06-19T13:19:26;95177.00;;;38.60
15680;BMP180;15488;48.114;11.532;2023-06-19T13:21:53;95231.00;;;38.80
15680;BMP180;15488;48.114;11.532;2023-06-19T13:24:21;95228.00;;;38.80
15680;BMP180;15488;48.114;11.532;2023-06-19T13:26:50;95222.00;;;39.00
15680;BMP180;15488;48.114;11.532;2023-06-19T13:29:17;95224.00;;;39.10
15680;BMP180;15488;48.114;11.532;2023-06-19T13:31:44;95220.00;;;39.30
15680;BMP180;15488;48.114;11.532;2023-06-19T13:34:12;95216.00;;;39.50
15680;BMP180;15488;48.114;11.532;2023-06-19T13:36:40;95222.00;;;39.70
15680;BMP180;15488;48.114;11.532;2023-06-19T13:39:07;95223.00;;;39.90
15680;BMP180;15488;48.114;11.532;2023-06-19T13:41:35;95224.00;;;40.10
15680;BMP180;15488;48.114;11.532;2023-06-19T13:44:04;95220.00;;;40.30
15680;BMP180;15488;48.114;11.532;2023-06-19T13:46:31;95214.00;;;40.50
15680;BMP180;15488;48.114;11.532;2023-06-19T13:48:58;95208.00;;;40.90
15680;BMP180;15488;48.114;11.532;2023-06-19T13:51:27;95209.00;;;41.60
15680;BMP180;15488;48.114;11.532;2023-06-19T13:53:54;95204.00;;;42.30
15680;BMP180;15488;48.114;11.532;2023-06-19T13:56:22;95197.00;;;43.00
15680;BMP180;15488;48.114;11.532;2023-06-19T13:58:50;95198.00;;;43.80
15680;BMP180;15488;48.114;11.532;2023-06-19T14:01:19;95190.00;;;44.50
15680;BMP180;15488;48.114;11.532;2023-06-19T14:03:46;95188.00;;;45.30